»·PEaware :: N7911X KWHP-KEMT

N7911X :: KWHP-KEMT

FLIGHT INFORMATION

Flight Status: Arrived
Operator: Privately registered:
United States
More flights under this callsign
Pilot: Wingman Flight Academy (25446)
Aircraft: CESSNA 172 SKYHAWK
(C172)
More flights by this aircraft type
Origin: KWHP Whiteman
United States
Destination: KEMT El Monte
United States
More flights between these airports :: More routes between these airports
Route: WHP1 VNY V186 PDZ
File this flight plan on PilotEdge
Remarks:
Altitude:
(Current/Filed)
5,000ft
Speed:
(Current/Filed)
0kts
Departed: 16-Sep-23 10:55 AM
Arrived: 16-Sep-23 11:30 AM
Distance/Time
Traveled:
22nm/0:35
Distance/Time
To Go:
Arrived

Flight Plot

Page will automatically refresh every two minutes.

Flight plan parsing failed; only flown route is shown


Map Options




Map Legend


Flown Route
Filed Route
Departure Airport
Arrival Airport
Navaid (VOR, NDB)
Fix

Horizontal Profiles

Position Reports

Time Latitude Longitude Heading Altitude Ground
Speed
16-Sep-23 10:44 34.261307 -118.412609 317 1005ft 0kts
16-Sep-23 10:45 34.261307 -118.412609 317 1005ft 0kts
16-Sep-23 10:46 34.261307 -118.412609 317 1005ft 0kts
16-Sep-23 10:47 34.261307 -118.412609 317 1005ft 0kts
16-Sep-23 10:48 34.261307 -118.412609 317 1005ft 0kts
16-Sep-23 10:49 34.261307 -118.412609 317 1005ft 0kts
16-Sep-23 10:50 34.261370 -118.412979 268 1004ft 14kts
16-Sep-23 10:51 34.257730 -118.411139 140 982ft 22kts
16-Sep-23 10:52 34.255589 -118.408894 143 970ft 0kts
16-Sep-23 10:53 34.255379 -118.409314 315 970ft 3kts
16-Sep-23 10:54 34.264369 -118.418587 278 1609ft 57kts
16-Sep-23 10:55 34.261036 -118.438577 276 2330ft 68kts
16-Sep-23 10:56 34.258372 -118.461159 275 3117ft 68kts
16-Sep-23 10:57 34.255784 -118.485571 276 3750ft 76kts
16-Sep-23 10:58 34.255988 -118.509528 321 4389ft 69kts
16-Sep-23 10:59 34.275789 -118.510213 301 5001ft 66kts
16-Sep-23 11:00 34.252810 -118.517954 141 4989ft 150kts
16-Sep-23 11:01 34.219341 -118.488224 152 4992ft 150kts
16-Sep-23 11:02 34.204977 -118.443039 71 4990ft 140kts
16-Sep-23 11:03 34.200841 -118.394570 97 4994ft 149kts
16-Sep-23 11:04 34.188581 -118.346390 114 4988ft 152kts
16-Sep-23 11:05 34.169901 -118.300832 113 4984ft 151kts
16-Sep-23 11:06 34.151231 -118.255490 113 4986ft 151kts
16-Sep-23 11:07 34.134029 -118.209330 109 4984ft 150kts
16-Sep-23 11:08 34.117508 -118.162896 109 4991ft 150kts
16-Sep-23 11:09 34.113586 -118.114386 86 4993ft 145kts
16-Sep-23 11:10 34.109701 -118.065337 88 4990ft 147kts
16-Sep-23 11:11 34.104699 -118.016326 90 4985ft 147kts
16-Sep-23 11:12 34.099296 -117.967369 89 4987ft 147kts
16-Sep-23 11:13 34.093738 -117.918635 90 4992ft 147kts
16-Sep-23 11:14 34.088021 -117.869358 90 4835ft 146kts
16-Sep-23 11:15 34.082949 -117.825860 96 4264ft 124kts
16-Sep-23 11:16 34.073625 -117.788542 124 3996ft 104kts
16-Sep-23 11:17 34.058241 -117.760406 112 3998ft 99kts
16-Sep-23 11:18 34.039543 -117.747142 230 3995ft 93kts
16-Sep-23 11:19 34.052417 -117.763811 355 4001ft 91kts
16-Sep-23 11:20 34.072788 -117.777517 305 3995ft 90kts
16-Sep-23 11:21 34.078505 -117.806795 271 3805ft 98kts
16-Sep-23 11:22 34.082353 -117.837483 280 3661ft 93kts
16-Sep-23 11:23 34.086326 -117.869366 277 3395ft 100kts
16-Sep-23 11:24 34.083792 -117.903357 263 2998ft 95kts
16-Sep-23 11:25 34.085792 -117.935001 275 2693ft 102kts
16-Sep-23 11:26 34.088274 -117.967542 275 2139ft 96kts
16-Sep-23 11:27 34.090348 -118.000779 274 1431ft 101kts
16-Sep-23 11:28 34.098106 -118.025148 290 664ft 60kts
16-Sep-23 11:29 34.086674 -118.034481 202 287ft 17kts
16-Sep-23 11:30 34.085380 -118.034093 48 288ft 0kts
16-Sep-23 11:31 34.085380 -118.034093 48 288ft 0kts
16-Sep-23 11:32 34.085380 -118.034093 48 288ft 0kts
16-Sep-23 11:33 34.085380 -118.034093 48 288ft 0kts
16-Sep-23 11:34 34.085380 -118.034093 48 288ft 0kts

Navigation Log

Ident Type
Flight plan parsing failed, navigation log unavailable